»·PEaware :: N800DW KSAN-KFUL

N800DW :: KSAN-KFUL

FLIGHT INFORMATION

Flight Status: Arrived
Operator: Privately registered:
United States
More flights under this callsign
Pilot: Scott L. (17677)
Aircraft: Unknown
(EPIC)
More flights by this aircraft type
Origin: KSAN San Diego Intl-Lindbergh
United States
Destination: KFUL Fullerton Mun
United States
More flights between these airports :: More routes between these airports
Route: +CWARD2 SLI
File this flight plan on PilotEdge
Remarks:
Altitude:
(Current/Filed)
8,000ft
Speed:
(Current/Filed)
250kts
Departed: 12-May-18 08:42 AM
Arrived: 12-May-18 09:19 AM
Distance/Time
Traveled:
79nm/0:37
Distance/Time
To Go:
Arrived

Flight Plot

Page will automatically refresh every two minutes.

Flight plan parsing failed; only flown route is shown


Map Options




Map Legend


Flown Route
Filed Route
Departure Airport
Arrival Airport
Navaid (VOR, NDB)
Fix

Horizontal Profiles

Position Reports

Time Latitude Longitude Heading Altitude Ground
Speed
12-May-18 08:31 32.734272 -117.185249 195 18ft 0kts
12-May-18 08:32 32.734272 -117.185249 195 18ft 0kts
12-May-18 08:33 32.734272 -117.185249 195 18ft 0kts
12-May-18 08:34 32.734272 -117.185249 195 18ft 0kts
12-May-18 08:35 32.734272 -117.185249 195 18ft 0kts
12-May-18 08:36 32.734272 -117.185249 195 18ft 0kts
12-May-18 08:37 32.734272 -117.185249 195 18ft 0kts
12-May-18 08:38 32.734272 -117.185249 195 18ft 0kts
12-May-18 08:39 32.733352 -117.184065 104 17ft 17kts
12-May-18 08:40 32.731498 -117.176592 115 26ft 22kts
12-May-18 08:41 32.730135 -117.175303 234 24ft 14kts
12-May-18 08:42 32.736044 -117.199747 284 304ft 184kts
12-May-18 08:43 32.767013 -117.266825 319 1545ft 268kts
12-May-18 08:44 32.820347 -117.329802 320 2368ft 287kts
12-May-18 08:48 32.734272 -117.185249 195 18ft 0kts
12-May-18 08:49 32.734272 -117.185249 195 18ft 0kts
12-May-18 08:50 32.734238 -117.185261 195 18ft 3kts
12-May-18 08:51 32.732628 -117.180981 105 17ft 21kts
12-May-18 08:52 32.731011 -117.175631 131 27ft 0kts
12-May-18 08:53 32.731397 -117.180933 286 16ft 119kts
12-May-18 08:54 32.750584 -117.244604 314 1386ft 237kts
12-May-18 08:55 32.791673 -117.307781 305 3415ft 246kts
12-May-18 08:56 32.833715 -117.371889 310 5412ft 247kts
12-May-18 08:57 32.876317 -117.437351 304 7413ft 253kts
12-May-18 08:58 32.920053 -117.505457 303 8012ft 267kts
12-May-18 08:59 32.965667 -117.576528 304 8016ft 272kts
12-May-18 09:00 33.011324 -117.647789 304 8017ft 270kts
12-May-18 09:01 33.056583 -117.718547 304 8019ft 269kts
12-May-18 09:02 33.108390 -117.774581 316 8018ft 269kts
12-May-18 09:03 33.161271 -117.828696 316 8019ft 268kts
12-May-18 09:04 33.228061 -117.860801 1 8017ft 279kts
12-May-18 09:05 33.305373 -117.852737 1 8015ft 279kts
12-May-18 09:06 33.382539 -117.844540 1 8007ft 280kts
12-May-18 09:07 33.460029 -117.836212 1 8000ft 280kts
12-May-18 09:08 33.536863 -117.827925 1 8000ft 280kts
12-May-18 09:09 33.613262 -117.819659 1 8000ft 280kts
12-May-18 09:10 33.690520 -117.812557 1 7679ft 279kts
12-May-18 09:11 33.762720 -117.813004 1 6001ft 238kts
12-May-18 09:12 33.822327 -117.802503 41 5740ft 219kts
12-May-18 09:13 33.868539 -117.755103 41 4136ft 219kts
12-May-18 09:14 33.909763 -117.763236 280 3098ft 213kts
12-May-18 09:15 33.901695 -117.822543 256 2976ft 144kts
12-May-18 09:16 33.893319 -117.867879 255 2031ft 156kts
12-May-18 09:17 33.883834 -117.917991 255 1006ft 147kts
12-May-18 09:18 33.875632 -117.961127 254 324ft 114kts
12-May-18 09:19 33.871479 -117.982609 256 93ft 21kts
12-May-18 09:20 33.870767 -117.981809 37 93ft 0kts
12-May-18 09:21 33.870767 -117.981809 37 93ft 0kts
12-May-18 09:22 33.870767 -117.981809 37 93ft 0kts
12-May-18 09:23 33.870767 -117.981809 37 93ft 0kts
12-May-18 09:24 33.870767 -117.981809 37 93ft 0kts
12-May-18 09:25 33.870767 -117.981809 37 93ft 0kts

Navigation Log

Ident Type
Flight plan parsing failed, navigation log unavailable